RYR421P LEMD-LPPR
Flight info
| Callsign | RYR421P |
|---|---|
| Flight time | 0h 48m |
| Altitude | 30000 |
| Route | BARDI DCT RIVRO DCT PESUL |
| Aircraft | B38M/M-SDE1FGHILORVWXY/HB1 |
Departure
| Time | 2026-05-07 17:45 |
|---|---|
| Airport | Adolfo Suárez Madrid–Barajas Airport (LEMD) |
Arrival
| Time | 2026-05-07 18:33 |
|---|---|
| Airport | Francisco de Sá Carneiro Airport (LPPR) |
| Time | Latitude | Longitude | Altitude | Speed | Heading |
|---|---|---|---|---|---|
| 2026-05-07 17:09 | 40.46567 | -3.56826 | 1975 ft | 0 kts | 262° |
| 2026-05-07 17:31 | 40.46568 | -3.56825 | 1980 ft | 1 kts | 262° |
| 2026-05-07 17:31 | 40.46570 | -3.56804 | 1975 ft | 3 kts | 262° |
| 2026-05-07 17:31 | 40.46573 | -3.56778 | 1976 ft | 3 kts | 262° |
| 2026-05-07 17:32 | 40.46575 | -3.56752 | 1978 ft | 3 kts | 262° |
| 2026-05-07 17:32 | 40.46575 | -3.56728 | 1979 ft | 3 kts | 295° |
| 2026-05-07 17:32 | 40.46565 | -3.56714 | 1979 ft | 3 kts | 346° |
| 2026-05-07 17:32 | 40.46556 | -3.56712 | 1978 ft | 1 kts | 3° |
| 2026-05-07 17:33 | 40.46537 | -3.56713 | 1978 ft | 2 kts | 3° |
| 2026-05-07 17:33 | 40.46533 | -3.56714 | 1976 ft | 1 kts | 3° |
| 2026-05-07 17:35 | 40.46538 | -3.56713 | 1978 ft | 2 kts | 3° |
| 2026-05-07 17:36 | 40.46563 | -3.56712 | 1980 ft | 6 kts | 3° |
| 2026-05-07 17:36 | 40.46626 | -3.56707 | 1975 ft | 11 kts | 3° |
| 2026-05-07 17:36 | 40.46709 | -3.56701 | 1977 ft | 12 kts | 3° |
| 2026-05-07 17:36 | 40.46782 | -3.56694 | 1976 ft | 5 kts | 14° |
| 2026-05-07 17:37 | 40.46804 | -3.56657 | 1978 ft | 6 kts | 83° |
| 2026-05-07 17:37 | 40.46802 | -3.56570 | 1976 ft | 13 kts | 93° |
| 2026-05-07 17:37 | 40.46822 | -3.56465 | 1978 ft | 11 kts | 20° |
| 2026-05-07 17:37 | 40.46903 | -3.56455 | 1979 ft | 13 kts | 4° |
| 2026-05-07 17:38 | 40.47010 | -3.56453 | 1980 ft | 17 kts | 354° |
| 2026-05-07 17:38 | 40.47137 | -3.56503 | 1982 ft | 21 kts | 331° |
| 2026-05-07 17:38 | 40.47259 | -3.56620 | 1986 ft | 21 kts | 322° |
| 2026-05-07 17:38 | 40.47373 | -3.56736 | 1990 ft | 20 kts | 321° |
| 2026-05-07 17:39 | 40.47479 | -3.56844 | 1993 ft | 19 kts | 321° |
| 2026-05-07 17:39 | 40.47586 | -3.56951 | 1996 ft | 20 kts | 322° |
| 2026-05-07 17:39 | 40.47693 | -3.57061 | 2000 ft | 19 kts | 322° |
| 2026-05-07 17:39 | 40.47761 | -3.57129 | 2001 ft | 18 kts | 322° |
| 2026-05-07 17:40 | 40.47863 | -3.57234 | 2003 ft | 20 kts | 322° |
| 2026-05-07 17:40 | 40.48038 | -3.57412 | 2003 ft | 27 kts | 322° |
| 2026-05-07 17:40 | 40.48190 | -3.57566 | 2001 ft | 27 kts | 323° |
| 2026-05-07 17:40 | 40.48291 | -3.57668 | 1998 ft | 14 kts | 323° |
| 2026-05-07 17:41 | 40.48345 | -3.57724 | 1996 ft | 16 kts | 322° |
| 2026-05-07 17:41 | 40.48411 | -3.57729 | 1995 ft | 7 kts | 49° |
| 2026-05-07 17:41 | 40.48412 | -3.57728 | 1995 ft | 0 kts | 50° |
| 2026-05-07 17:43 | 40.48412 | -3.57727 | 1995 ft | 0 kts | 50° |
| 2026-05-07 17:43 | 40.48429 | -3.57700 | 1997 ft | 9 kts | 52° |
| 2026-05-07 17:43 | 40.48445 | -3.57603 | 1996 ft | 13 kts | 104° |
| 2026-05-07 17:44 | 40.48409 | -3.57519 | 2000 ft | 0 kts | 142° |
| 2026-05-07 17:44 | 40.48407 | -3.57517 | 2000 ft | 6 kts | 142° |
| 2026-05-07 17:44 | 40.48195 | -3.57301 | 2005 ft | 70 kts | 142° |
| 2026-05-07 17:44 | 40.47647 | -3.56743 | 1999 ft | 127 kts | 142° |
| 2026-05-07 17:45 | 40.46819 | -3.55898 | 1999 ft | 169 kts | 141° |
| 2026-05-07 17:45 | 40.45844 | -3.54954 | 2389 ft | 177 kts | 145° |
| 2026-05-07 17:45 | 40.44793 | -3.53979 | 2807 ft | 191 kts | 141° |
| 2026-05-07 17:45 | 40.43771 | -3.52937 | 3581 ft | 182 kts | 140° |
| 2026-05-07 17:46 | 40.42715 | -3.51847 | 3945 ft | 206 kts | 141° |
| 2026-05-07 17:46 | 40.41510 | -3.50612 | 4304 ft | 230 kts | 142° |
| 2026-05-07 17:46 | 40.40266 | -3.49344 | 5281 ft | 225 kts | 142° |
| 2026-05-07 17:46 | 40.38846 | -3.48375 | 5810 ft | 241 kts | 171° |
| 2026-05-07 17:47 | 40.37151 | -3.48653 | 6285 ft | 258 kts | 206° |
| 2026-05-07 17:47 | 40.35778 | -3.50225 | 6904 ft | 268 kts | 236° |
| 2026-05-07 17:47 | 40.35134 | -3.52514 | 7678 ft | 274 kts | 265° |
| 2026-05-07 17:47 | 40.35221 | -3.54979 | 8523 ft | 276 kts | 271° |
| 2026-05-07 17:48 | 40.35284 | -3.57516 | 9285 ft | 279 kts | 270° |
| 2026-05-07 17:48 | 40.35339 | -3.60062 | 10116 ft | 281 kts | 270° |
| 2026-05-07 17:48 | 40.35382 | -3.62690 | 10549 ft | 297 kts | 269° |
| 2026-05-07 17:48 | 40.35408 | -3.65485 | 10909 ft | 314 kts | 269° |
| 2026-05-07 17:49 | 40.35436 | -3.68392 | 11473 ft | 323 kts | 269° |
| 2026-05-07 17:49 | 40.35477 | -3.71350 | 12275 ft | 325 kts | 270° |
| 2026-05-07 17:49 | 40.35524 | -3.74341 | 13012 ft | 330 kts | 270° |
| 2026-05-07 17:49 | 40.35576 | -3.77364 | 13805 ft | 334 kts | 270° |
| 2026-05-07 17:50 | 40.35627 | -3.80422 | 14495 ft | 338 kts | 270° |
| 2026-05-07 17:50 | 40.35681 | -3.83522 | 15242 ft | 341 kts | 270° |
| 2026-05-07 17:50 | 40.35735 | -3.86634 | 15965 ft | 345 kts | 270° |
| 2026-05-07 17:50 | 40.35788 | -3.89786 | 16697 ft | 348 kts | 270° |
| 2026-05-07 17:51 | 40.35841 | -3.92977 | 17399 ft | 352 kts | 270° |
| 2026-05-07 17:51 | 40.35894 | -3.96205 | 18077 ft | 356 kts | 270° |
| 2026-05-07 17:51 | 40.35948 | -3.99459 | 18678 ft | 359 kts | 270° |
| 2026-05-07 17:51 | 40.35999 | -4.02749 | 19264 ft | 362 kts | 270° |
| 2026-05-07 17:52 | 40.36053 | -4.06050 | 19900 ft | 364 kts | 271° |
| 2026-05-07 17:52 | 40.36103 | -4.09343 | 20470 ft | 367 kts | 271° |
| 2026-05-07 17:52 | 40.36156 | -4.12698 | 21058 ft | 370 kts | 271° |
| 2026-05-07 17:52 | 40.36207 | -4.16087 | 21640 ft | 372 kts | 271° |
| 2026-05-07 17:53 | 40.36257 | -4.19490 | 22216 ft | 375 kts | 271° |
| 2026-05-07 17:53 | 40.36307 | -4.22920 | 22784 ft | 377 kts | 271° |
| 2026-05-07 17:53 | 40.36357 | -4.26372 | 23344 ft | 380 kts | 271° |
| 2026-05-07 17:53 | 40.36406 | -4.29849 | 23825 ft | 382 kts | 271° |
| 2026-05-07 17:54 | 40.36454 | -4.33348 | 24339 ft | 383 kts | 272° |
| 2026-05-07 17:54 | 40.36502 | -4.36834 | 24863 ft | 383 kts | 272° |
| 2026-05-07 17:54 | 40.36549 | -4.40326 | 25382 ft | 383 kts | 272° |
| 2026-05-07 17:54 | 40.36595 | -4.43822 | 25891 ft | 383 kts | 272° |
| 2026-05-07 17:55 | 40.36640 | -4.47312 | 26383 ft | 383 kts | 272° |
| 2026-05-07 17:55 | 40.36685 | -4.50804 | 26865 ft | 383 kts | 273° |
| 2026-05-07 17:55 | 40.36729 | -4.54302 | 27350 ft | 384 kts | 273° |
| 2026-05-07 17:55 | 40.36772 | -4.57804 | 27816 ft | 384 kts | 273° |
| 2026-05-07 17:56 | 40.36814 | -4.61310 | 28251 ft | 384 kts | 273° |
| 2026-05-07 17:56 | 40.37008 | -4.64738 | 28815 ft | 379 kts | 282° |
| 2026-05-07 17:56 | 40.37485 | -4.68113 | 29476 ft | 375 kts | 281° |
| 2026-05-07 17:56 | 40.37936 | -4.71480 | 29900 ft | 374 kts | 282° |
| 2026-05-07 17:57 | 40.38683 | -4.77010 | 29918 ft | 368 kts | 282° |
| 2026-05-07 17:57 | 40.39725 | -4.84734 | 29905 ft | 368 kts | 282° |
| 2026-05-07 17:58 | 40.40614 | -4.91351 | 29902 ft | 369 kts | 282° |
| 2026-05-07 17:58 | 40.41501 | -4.97990 | 29880 ft | 369 kts | 281° |
| 2026-05-07 17:59 | 40.42383 | -5.04611 | 29905 ft | 371 kts | 281° |
| 2026-05-07 17:59 | 40.43268 | -5.11285 | 29906 ft | 371 kts | 281° |
| 2026-05-07 18:00 | 40.44147 | -5.17956 | 29898 ft | 371 kts | 281° |
| 2026-05-07 18:00 | 40.45023 | -5.24622 | 29881 ft | 371 kts | 281° |
| 2026-05-07 18:01 | 40.45894 | -5.31290 | 29893 ft | 371 kts | 281° |
| 2026-05-07 18:01 | 40.46766 | -5.37991 | 29890 ft | 374 kts | 280° |
| 2026-05-07 18:02 | 40.48073 | -5.48102 | 29890 ft | 374 kts | 280° |
| 2026-05-07 18:03 | 40.48940 | -5.54844 | 29881 ft | 374 kts | 280° |
| 2026-05-07 18:03 | 40.49803 | -5.61589 | 29887 ft | 374 kts | 280° |
| 2026-05-07 18:04 | 40.50661 | -5.68333 | 29892 ft | 374 kts | 280° |
| 2026-05-07 18:04 | 40.51518 | -5.75097 | 29881 ft | 376 kts | 279° |
| 2026-05-07 18:05 | 40.52370 | -5.81849 | 29885 ft | 377 kts | 279° |
| 2026-05-07 18:05 | 40.53222 | -5.88643 | 29886 ft | 377 kts | 279° |
| 2026-05-07 18:06 | 40.54071 | -5.95442 | 29885 ft | 377 kts | 279° |
| 2026-05-07 18:06 | 40.55208 | -6.02163 | 29901 ft | 377 kts | 282° |
| 2026-05-07 18:07 | 40.56343 | -6.08895 | 29872 ft | 377 kts | 282° |
| 2026-05-07 18:07 | 40.57469 | -6.15658 | 29878 ft | 380 kts | 282° |
| 2026-05-07 18:08 | 40.58595 | -6.22447 | 29872 ft | 379 kts | 281° |
| 2026-05-07 18:08 | 40.59715 | -6.29228 | 29869 ft | 380 kts | 281° |
| 2026-05-07 18:09 | 40.60831 | -6.36014 | 29869 ft | 379 kts | 281° |
| 2026-05-07 18:09 | 40.61937 | -6.42764 | 29860 ft | 379 kts | 281° |
| 2026-05-07 18:10 | 40.63045 | -6.49553 | 29853 ft | 376 kts | 281° |
| 2026-05-07 18:10 | 40.63582 | -6.52853 | 29869 ft | 361 kts | 281° |
| 2026-05-07 18:10 | 40.64100 | -6.56040 | 29869 ft | 353 kts | 280° |
| 2026-05-07 18:11 | 40.65121 | -6.62344 | 29862 ft | 351 kts | 280° |
| 2026-05-07 18:11 | 40.66137 | -6.68644 | 29858 ft | 351 kts | 280° |
| 2026-05-07 18:12 | 40.67148 | -6.74931 | 29858 ft | 351 kts | 280° |
| 2026-05-07 18:12 | 40.67653 | -6.78079 | 29232 ft | 356 kts | 280° |
| 2026-05-07 18:12 | 40.68171 | -6.81311 | 28357 ft | 363 kts | 281° |
| 2026-05-07 18:12 | 40.68695 | -6.84590 | 27546 ft | 369 kts | 281° |
| 2026-05-07 18:13 | 40.69227 | -6.87930 | 26748 ft | 375 kts | 280° |
| 2026-05-07 18:13 | 40.69767 | -6.91321 | 25969 ft | 381 kts | 280° |
| 2026-05-07 18:13 | 40.70314 | -6.94763 | 25224 ft | 386 kts | 281° |
| 2026-05-07 18:13 | 40.70861 | -6.98212 | 24856 ft | 381 kts | 281° |
| 2026-05-07 18:14 | 40.71391 | -7.01568 | 24877 ft | 365 kts | 281° |
| 2026-05-07 18:14 | 40.71898 | -7.04786 | 24366 ft | 366 kts | 281° |
| 2026-05-07 18:14 | 40.72421 | -7.08101 | 23670 ft | 373 kts | 281° |
| 2026-05-07 18:14 | 40.72950 | -7.11463 | 23019 ft | 376 kts | 281° |
| 2026-05-07 18:15 | 40.73476 | -7.14823 | 22568 ft | 373 kts | 281° |
| 2026-05-07 18:15 | 40.73996 | -7.18143 | 22216 ft | 367 kts | 281° |
| 2026-05-07 18:15 | 40.74508 | -7.21420 | 21841 ft | 363 kts | 281° |
| 2026-05-07 18:15 | 40.75015 | -7.24669 | 21467 ft | 359 kts | 280° |
| 2026-05-07 18:16 | 40.75515 | -7.27882 | 21088 ft | 356 kts | 281° |
| 2026-05-07 18:16 | 40.76011 | -7.31069 | 20720 ft | 353 kts | 280° |
| 2026-05-07 18:16 | 40.76501 | -7.34228 | 20353 ft | 351 kts | 280° |
| 2026-05-07 18:16 | 40.76986 | -7.37367 | 19993 ft | 348 kts | 280° |
| 2026-05-07 18:17 | 40.77468 | -7.40483 | 19630 ft | 345 kts | 280° |
| 2026-05-07 18:17 | 40.78046 | -7.43567 | 19023 ft | 351 kts | 288° |
| 2026-05-07 18:17 | 40.78846 | -7.46650 | 18365 ft | 358 kts | 286° |
| 2026-05-07 18:17 | 40.79628 | -7.49808 | 17619 ft | 366 kts | 286° |
| 2026-05-07 18:18 | 40.80408 | -7.53012 | 16825 ft | 373 kts | 286° |
| 2026-05-07 18:18 | 40.81201 | -7.56308 | 16039 ft | 380 kts | 286° |
| 2026-05-07 18:18 | 40.82003 | -7.59664 | 15267 ft | 386 kts | 285° |
| 2026-05-07 18:18 | 40.82814 | -7.63075 | 14540 ft | 391 kts | 285° |
| 2026-05-07 18:19 | 40.83619 | -7.66464 | 14037 ft | 383 kts | 285° |
| 2026-05-07 18:19 | 40.84398 | -7.69750 | 13666 ft | 366 kts | 285° |
| 2026-05-07 18:19 | 40.85145 | -7.72899 | 13295 ft | 355 kts | 285° |
| 2026-05-07 18:19 | 40.85875 | -7.75992 | 12896 ft | 351 kts | 284° |
| 2026-05-07 18:20 | 40.86600 | -7.79060 | 12517 ft | 348 kts | 285° |
| 2026-05-07 18:20 | 40.87316 | -7.82093 | 12156 ft | 345 kts | 284° |
| 2026-05-07 18:20 | 40.88025 | -7.85105 | 11797 ft | 341 kts | 284° |
| 2026-05-07 18:20 | 40.88727 | -7.88088 | 11435 ft | 338 kts | 284° |
| 2026-05-07 18:21 | 40.89420 | -7.91042 | 11081 ft | 335 kts | 284° |
| 2026-05-07 18:21 | 40.90108 | -7.93973 | 10723 ft | 332 kts | 284° |
| 2026-05-07 18:21 | 40.90789 | -7.96880 | 10374 ft | 330 kts | 284° |
| 2026-05-07 18:21 | 40.91464 | -7.99760 | 10076 ft | 325 kts | 284° |
| 2026-05-07 18:22 | 40.92123 | -8.02583 | 9926 ft | 317 kts | 284° |
| 2026-05-07 18:22 | 40.92333 | -8.03481 | 9850 ft | 314 kts | 284° |
| 2026-05-07 18:22 | 40.93381 | -8.07975 | 9253 ft | 300 kts | 284° |
| 2026-05-07 18:22 | 40.93985 | -8.10568 | 8921 ft | 290 kts | 284° |
| 2026-05-07 18:23 | 40.94574 | -8.13099 | 8622 ft | 286 kts | 284° |
| 2026-05-07 18:23 | 40.95158 | -8.15610 | 8277 ft | 285 kts | 284° |
| 2026-05-07 18:23 | 40.95736 | -8.18103 | 7994 ft | 282 kts | 284° |
| 2026-05-07 18:23 | 40.96308 | -8.20573 | 7691 ft | 280 kts | 284° |
| 2026-05-07 18:24 | 40.96879 | -8.23032 | 7393 ft | 279 kts | 284° |
| 2026-05-07 18:24 | 40.97446 | -8.25489 | 7082 ft | 279 kts | 283° |
| 2026-05-07 18:24 | 40.98011 | -8.27935 | 6774 ft | 278 kts | 283° |
| 2026-05-07 18:24 | 40.98574 | -8.30374 | 6482 ft | 274 kts | 284° |
| 2026-05-07 18:25 | 40.99123 | -8.32750 | 6156 ft | 266 kts | 284° |
| 2026-05-07 18:25 | 40.99661 | -8.35081 | 5868 ft | 262 kts | 284° |
| 2026-05-07 18:25 | 41.00180 | -8.37340 | 5559 ft | 259 kts | 283° |
| 2026-05-07 18:25 | 41.00700 | -8.39598 | 5273 ft | 255 kts | 284° |
| 2026-05-07 18:26 | 41.01214 | -8.41837 | 5016 ft | 252 kts | 284° |
| 2026-05-07 18:26 | 41.01715 | -8.44022 | 4716 ft | 244 kts | 284° |
| 2026-05-07 18:26 | 41.02200 | -8.46134 | 4452 ft | 234 kts | 284° |
| 2026-05-07 18:26 | 41.02660 | -8.48153 | 4230 ft | 226 kts | 285° |
| 2026-05-07 18:27 | 41.03109 | -8.50113 | 4108 ft | 218 kts | 285° |
| 2026-05-07 18:27 | 41.03542 | -8.52006 | 4061 ft | 214 kts | 284° |
| 2026-05-07 18:27 | 41.03974 | -8.53897 | 3967 ft | 214 kts | 285° |
| 2026-05-07 18:27 | 41.04259 | -8.55151 | 3879 ft | 215 kts | 285° |
| 2026-05-07 18:28 | 41.04694 | -8.57056 | 3755 ft | 215 kts | 285° |
| 2026-05-07 18:28 | 41.05124 | -8.58940 | 3609 ft | 212 kts | 285° |
| 2026-05-07 18:28 | 41.05706 | -8.61393 | 3442 ft | 212 kts | 292° |
| 2026-05-07 18:28 | 41.06622 | -8.62908 | 3241 ft | 215 kts | 323° |
| 2026-05-07 18:29 | 41.07517 | -8.63532 | 3136 ft | 217 kts | 337° |
| 2026-05-07 18:29 | 41.08952 | -8.64016 | 3050 ft | 212 kts | 347° |
| 2026-05-07 18:29 | 41.10385 | -8.64366 | 2806 ft | 207 kts | 348° |
| 2026-05-07 18:29 | 41.11774 | -8.64716 | 2555 ft | 199 kts | 347° |
| 2026-05-07 18:30 | 41.13086 | -8.65056 | 2302 ft | 183 kts | 347° |
| 2026-05-07 18:30 | 41.14273 | -8.65366 | 2094 ft | 164 kts | 346° |
| 2026-05-07 18:30 | 41.15323 | -8.65641 | 1880 ft | 147 kts | 346° |
| 2026-05-07 18:30 | 41.16319 | -8.65904 | 1736 ft | 145 kts | 345° |
| 2026-05-07 18:31 | 41.17305 | -8.66164 | 1481 ft | 144 kts | 346° |
| 2026-05-07 18:31 | 41.18296 | -8.66397 | 1297 ft | 141 kts | 348° |
| 2026-05-07 18:31 | 41.19251 | -8.66632 | 1123 ft | 138 kts | 346° |
| 2026-05-07 18:31 | 41.20199 | -8.66889 | 925 ft | 138 kts | 345° |
| 2026-05-07 18:32 | 41.21138 | -8.67167 | 740 ft | 138 kts | 347° |
| 2026-05-07 18:32 | 41.22091 | -8.67419 | 544 ft | 139 kts | 347° |
| 2026-05-07 18:32 | 41.23049 | -8.67663 | 326 ft | 140 kts | 346° |
| 2026-05-07 18:32 | 41.23948 | -8.67900 | 222 ft | 110 kts | 348° |
| 2026-05-07 18:33 | 41.24468 | -8.68036 | 214 ft | 56 kts | 348° |
| 2026-05-07 18:33 | 41.24858 | -8.68140 | 215 ft | 57 kts | 349° |
| 2026-05-07 18:33 | 41.25133 | -8.68160 | 192 ft | 34 kts | 11° |
| 2026-05-07 18:33 | 41.25287 | -8.68085 | 184 ft | 15 kts | 53° |
| 2026-05-07 18:34 | 41.25252 | -8.68012 | 186 ft | 10 kts | 166° |
| 2026-05-07 18:34 | 41.25197 | -8.67997 | 189 ft | 0 kts | 169° |
| 2026-05-07 18:34 | 41.25180 | -8.67993 | 189 ft | 6 kts | 169° |
| 2026-05-07 18:34 | 41.25109 | -8.67975 | 192 ft | 15 kts | 169° |
| 2026-05-07 18:35 | 41.25001 | -8.67946 | 207 ft | 16 kts | 169° |
| 2026-05-07 18:35 | 41.24895 | -8.67917 | 201 ft | 15 kts | 166° |
| 2026-05-07 18:35 | 41.24806 | -8.67862 | 212 ft | 13 kts | 150° |
| 2026-05-07 18:35 | 41.24713 | -8.67818 | 218 ft | 16 kts | 168° |
| 2026-05-07 18:36 | 41.24604 | -8.67789 | 217 ft | 15 kts | 169° |
| 2026-05-07 18:36 | 41.24505 | -8.67761 | 222 ft | 14 kts | 168° |
| 2026-05-07 18:36 | 41.24415 | -8.67736 | 227 ft | 13 kts | 168° |
| 2026-05-07 18:36 | 41.24331 | -8.67711 | 230 ft | 13 kts | 165° |
| 2026-05-07 18:37 | 41.24270 | -8.67648 | 235 ft | 10 kts | 128° |
| 2026-05-07 18:37 | 41.24226 | -8.67571 | 240 ft | 12 kts | 127° |
| 2026-05-07 18:37 | 41.24162 | -8.67486 | 244 ft | 12 kts | 144° |
| 2026-05-07 18:37 | 41.24086 | -8.67437 | 245 ft | 11 kts | 159° |
| 2026-05-07 18:38 | 41.24029 | -8.67418 | 245 ft | 6 kts | 153° |
| 2026-05-07 18:38 | 41.24018 | -8.67365 | 245 ft | 6 kts | 90° |
| 2026-05-07 18:38 | 41.24018 | -8.67322 | 245 ft | 3 kts | 89° |
| 2026-05-07 18:38 | 41.24019 | -8.67305 | 245 ft | 0 kts | 89° |